sensor_id;sensor_type;location;lat;lon;timestamp;pressure;altitude;pressure_sealevel;temperature;humidity
75536;BME280;64119;52.070;20.804;2023-07-13T00:00:43;99963.56;;;16.37;91.16
75536;BME280;64119;52.070;20.804;2023-07-13T00:03:31;99958.03;;;16.34;91.26
75536;BME280;64119;52.070;20.804;2023-07-13T00:06:02;99961.69;;;16.32;90.64
75536;BME280;64119;52.070;20.804;2023-07-13T00:08:31;99963.46;;;16.32;90.95
75536;BME280;64119;52.070;20.804;2023-07-13T00:11:01;99959.39;;;16.32;91.68
75536;BME280;64119;52.070;20.804;2023-07-13T00:13:29;99955.28;;;16.30;91.99
75536;BME280;64119;52.070;20.804;2023-07-13T00:15:58;99950.21;;;16.29;93.15
75536;BME280;64119;52.070;20.804;2023-07-13T00:18:26;99949.55;;;16.28;90.79
75536;BME280;64119;52.070;20.804;2023-07-13T00:20:58;99957.05;;;16.30;90.01
75536;BME280;64119;52.070;20.804;2023-07-13T00:23:56;99964.62;;;16.32;89.24
75536;BME280;64119;52.070;20.804;2023-07-13T00:26:24;99962.02;;;16.32;90.56
75536;BME280;64119;52.070;20.804;2023-07-13T00:28:54;99962.61;;;16.33;91.57
75536;BME280;64119;52.070;20.804;2023-07-13T00:31:22;99955.42;;;16.32;92.23
75536;BME280;64119;52.070;20.804;2023-07-13T00:33:51;99954.23;;;16.32;91.66
75536;BME280;64119;52.070;20.804;2023-07-13T00:36:19;99951.60;;;16.31;91.32
75536;BME280;64119;52.070;20.804;2023-07-13T00:38:48;99949.23;;;16.31;91.63
75536;BME280;64119;52.070;20.804;2023-07-13T00:41:15;99949.98;;;16.30;91.37
75536;BME280;64119;52.070;20.804;2023-07-13T00:43:44;99948.80;;;16.30;91.13
75536;BME280;64119;52.070;20.804;2023-07-13T00:46:49;99945.37;;;16.30;91.26
75536;BME280;64119;52.070;20.804;2023-07-13T00:49:13;99943.02;;;16.30;92.15
75536;BME280;64119;52.070;20.804;2023-07-13T00:51:49;99942.15;;;16.30;91.68
75536;BME280;64119;52.070;20.804;2023-07-13T00:54:22;99941.52;;;16.30;92.36
75536;BME280;64119;52.070;20.804;2023-07-13T00:56:55;99944.85;;;16.29;91.09
75536;BME280;64119;52.070;20.804;2023-07-13T00:59:25;99942.67;;;16.29;91.99
75536;BME280;64119;52.070;20.804;2023-07-13T01:01:54;99941.73;;;16.30;92.68
75536;BME280;64119;52.070;20.804;2023-07-13T01:04:24;99939.30;;;16.29;92.35
75536;BME280;64119;52.070;20.804;2023-07-13T01:06:56;99947.86;;;16.29;93.27
75536;BME280;64119;52.070;20.804;2023-07-13T01:09:26;99946.14;;;16.29;92.62
75536;BME280;64119;52.070;20.804;2023-07-13T01:11:54;99951.13;;;16.29;92.36
75536;BME280;64119;52.070;20.804;2023-07-13T01:14:22;99951.65;;;16.29;92.22
75536;BME280;64119;52.070;20.804;2023-07-13T01:16:50;99955.81;;;16.30;92.05
75536;BME280;64119;52.070;20.804;2023-07-13T01:22:16;99958.27;;;16.30;92.20
75536;BME280;64119;52.070;20.804;2023-07-13T01:24:47;99957.34;;;16.29;92.38
75536;BME280;64119;52.070;20.804;2023-07-13T01:27:19;99964.80;;;16.28;92.56
75536;BME280;64119;52.070;20.804;2023-07-13T01:29:48;99974.76;;;16.27;92.40
75536;BME280;64119;52.070;20.804;2023-07-13T01:32:22;99980.81;;;16.26;93.49
75536;BME280;64119;52.070;20.804;2023-07-13T01:34:55;99980.87;;;16.26;93.85
75536;BME280;64119;52.070;20.804;2023-07-13T01:37:24;99979.54;;;16.26;93.48
75536;BME280;64119;52.070;20.804;2023-07-13T01:39:53;99986.25;;;16.27;93.53
75536;BME280;64119;52.070;20.804;2023-07-13T01:42:22;99983.69;;;16.27;92.39
75536;BME280;64119;52.070;20.804;2023-07-13T01:45:07;99979.84;;;16.28;93.61
75536;BME280;64119;52.070;20.804;2023-07-13T01:47:36;99976.45;;;16.26;93.67
75536;BME280;64119;52.070;20.804;2023-07-13T01:50:04;99973.42;;;16.25;93.42
75536;BME280;64119;52.070;20.804;2023-07-13T01:52:32;99974.11;;;16.24;92.89
75536;BME280;64119;52.070;20.804;2023-07-13T01:55:00;99971.61;;;16.26;92.10
75536;BME280;64119;52.070;20.804;2023-07-13T01:57:29;99974.96;;;16.27;92.05
75536;BME280;64119;52.070;20.804;2023-07-13T01:59:57;99977.77;;;16.28;92.10
75536;BME280;64119;52.070;20.804;2023-07-13T02:02:27;99981.13;;;16.30;91.96
75536;BME280;64119;52.070;20.804;2023-07-13T02:04:55;99980.65;;;16.30;92.49
75536;BME280;64119;52.070;20.804;2023-07-13T02:07:22;99981.71;;;16.32;92.98
75536;BME280;64119;52.070;20.804;2023-07-13T02:09:51;99983.36;;;16.32;93.40
75536;BME280;64119;52.070;20.804;2023-07-13T02:12:19;99986.34;;;16.31;92.70
75536;BME280;64119;52.070;20.804;2023-07-13T02:14:47;99988.80;;;16.31;92.71
75536;BME280;64119;52.070;20.804;2023-07-13T02:17:15;99994.85;;;16.31;92.62
75536;BME280;64119;52.070;20.804;2023-07-13T02:19:42;99998.96;;;16.31;92.55
75536;BME280;64119;52.070;20.804;2023-07-13T02:22:10;100005.41;;;16.31;92.56
75536;BME280;64119;52.070;20.804;2023-07-13T02:24:38;100004.54;;;16.31;93.24
75536;BME280;64119;52.070;20.804;2023-07-13T02:27:06;100001.06;;;16.30;93.07
75536;BME280;64119;52.070;20.804;2023-07-13T02:29:34;99999.91;;;16.30;93.13
75536;BME280;64119;52.070;20.804;2023-07-13T02:32:02;99997.28;;;16.29;93.11
75536;BME280;64119;52.070;20.804;2023-07-13T02:34:33;99995.43;;;16.28;93.18
75536;BME280;64119;52.070;20.804;2023-07-13T02:37:04;99994.57;;;16.28;93.13
75536;BME280;64119;52.070;20.804;2023-07-13T02:39:34;99988.39;;;16.27;93.43
75536;BME280;64119;52.070;20.804;2023-07-13T02:42:04;99983.39;;;16.25;93.07
75536;BME280;64119;52.070;20.804;2023-07-13T02:44:31;99982.08;;;16.25;92.20
75536;BME280;64119;52.070;20.804;2023-07-13T02:47:00;99989.90;;;16.25;92.55
75536;BME280;64119;52.070;20.804;2023-07-13T02:49:28;99989.05;;;16.25;91.90
75536;BME280;64119;52.070;20.804;2023-07-13T02:51:57;99990.02;;;16.25;92.52
75536;BME280;64119;52.070;20.804;2023-07-13T02:54:25;99990.28;;;16.25;92.12
75536;BME280;64119;52.070;20.804;2023-07-13T02:56:53;99989.31;;;16.25;91.57
75536;BME280;64119;52.070;20.804;2023-07-13T02:59:21;99996.71;;;16.26;92.66
75536;BME280;64119;52.070;20.804;2023-07-13T03:01:49;99992.61;;;16.26;92.27
75536;BME280;64119;52.070;20.804;2023-07-13T03:04:17;99995.72;;;16.27;92.36
75536;BME280;64119;52.070;20.804;2023-07-13T03:06:47;100003.27;;;16.27;92.35
75536;BME280;64119;52.070;20.804;2023-07-13T03:09:18;100000.34;;;16.28;92.91
75536;BME280;64119;52.070;20.804;2023-07-13T03:11:54;100001.67;;;16.27;93.10
75536;BME280;64119;52.070;20.804;2023-07-13T03:14:28;99996.54;;;16.27;93.28
75536;BME280;64119;52.070;20.804;2023-07-13T03:16:56;99990.09;;;16.26;93.05
75536;BME280;64119;52.070;20.804;2023-07-13T03:19:28;99989.74;;;16.25;92.89
75536;BME280;64119;52.070;20.804;2023-07-13T03:21:56;99987.13;;;16.25;92.09
75536;BME280;64119;52.070;20.804;2023-07-13T03:24:23;99980.62;;;16.26;93.07
75536;BME280;64119;52.070;20.804;2023-07-13T03:26:54;99982.09;;;16.26;92.06
75536;BME280;64119;52.070;20.804;2023-07-13T03:29:28;99981.43;;;16.27;92.78
75536;BME280;64119;52.070;20.804;2023-07-13T03:31:56;99978.24;;;16.28;93.42
75536;BME280;64119;52.070;20.804;2023-07-13T03:34:24;99976.48;;;16.28;92.82
75536;BME280;64119;52.070;20.804;2023-07-13T03:36:54;99974.02;;;16.31;91.41
75536;BME280;64119;52.070;20.804;2023-07-13T03:39:22;99973.27;;;16.33;91.87
75536;BME280;64119;52.070;20.804;2023-07-13T03:41:53;99972.87;;;16.37;94.90
75536;BME280;64119;52.070;20.804;2023-07-13T03:44:22;99972.13;;;16.39;92.08
75536;BME280;64119;52.070;20.804;2023-07-13T03:46:53;99972.38;;;16.43;93.52
75536;BME280;64119;52.070;20.804;2023-07-13T03:49:21;99967.02;;;16.48;95.12
75536;BME280;64119;52.070;20.804;2023-07-13T03:51:49;99966.61;;;16.53;95.18
75536;BME280;64119;52.070;20.804;2023-07-13T03:54:20;99973.25;;;16.58;93.95
75536;BME280;64119;52.070;20.804;2023-07-13T03:56:48;99971.45;;;16.65;94.28
75536;BME280;64119;52.070;20.804;2023-07-13T03:59:17;99975.73;;;16.72;92.83
75536;BME280;64119;52.070;20.804;2023-07-13T04:01:45;99976.75;;;16.80;92.44
75536;BME280;64119;52.070;20.804;2023-07-13T04:04:15;99978.73;;;16.88;93.10
75536;BME280;64119;52.070;20.804;2023-07-13T04:06:43;99985.35;;;16.97;93.49
75536;BME280;64119;52.070;20.804;2023-07-13T04:09:12;99989.69;;;17.08;93.43
75536;BME280;64119;52.070;20.804;2023-07-13T04:11:40;99991.83;;;17.20;93.21
75536;BME280;64119;52.070;20.804;2023-07-13T04:14:07;99993.67;;;17.33;92.76
75536;BME280;64119;52.070;20.804;2023-07-13T04:16:35;99995.46;;;17.46;92.25
75536;BME280;64119;52.070;20.804;2023-07-13T04:19:03;99994.26;;;17.59;92.68
75536;BME280;64119;52.070;20.804;2023-07-13T04:21:31;100002.30;;;17.71;92.93
75536;BME280;64119;52.070;20.804;2023-07-13T04:24:01;100003.81;;;17.81;93.37
75536;BME280;64119;52.070;20.804;2023-07-13T04:26:30;100012.98;;;17.91;93.03
75536;BME280;64119;52.070;20.804;2023-07-13T04:28:58;100018.79;;;18.02;93.16
75536;BME280;64119;52.070;20.804;2023-07-13T04:31:26;100020.00;;;18.11;93.16
75536;BME280;64119;52.070;20.804;2023-07-13T04:33:54;100022.41;;;18.20;93.56
75536;BME280;64119;52.070;20.804;2023-07-13T04:36:24;100029.36;;;18.29;92.80
75536;BME280;64119;52.070;20.804;2023-07-13T04:38:55;100036.21;;;18.39;93.00
75536;BME280;64119;52.070;20.804;2023-07-13T04:41:23;100035.55;;;18.47;93.12
75536;BME280;64119;52.070;20.804;2023-07-13T04:43:51;100036.69;;;18.56;93.34
75536;BME280;64119;52.070;20.804;2023-07-13T04:46:23;100033.95;;;18.64;93.58
75536;BME280;64119;52.070;20.804;2023-07-13T04:48:51;100034.23;;;18.72;92.43
75536;BME280;64119;52.070;20.804;2023-07-13T04:51:21;100035.85;;;18.77;92.31
75536;BME280;64119;52.070;20.804;2023-07-13T04:53:49;100037.92;;;18.83;92.19
75536;BME280;64119;52.070;20.804;2023-07-13T04:56:23;100040.61;;;18.88;92.13
75536;BME280;64119;52.070;20.804;2023-07-13T04:58:50;100038.93;;;18.96;92.38
75536;BME280;64119;52.070;20.804;2023-07-13T05:01:21;100037.55;;;19.01;92.33
75536;BME280;64119;52.070;20.804;2023-07-13T05:03:49;100041.48;;;19.07;92.52
75536;BME280;64119;52.070;20.804;2023-07-13T05:06:18;100041.98;;;19.12;93.23
75536;BME280;64119;52.070;20.804;2023-07-13T05:08:46;100040.96;;;19.18;93.47
75536;BME280;64119;52.070;20.804;2023-07-13T05:11:14;100047.61;;;19.24;93.79
75536;BME280;64119;52.070;20.804;2023-07-13T05:13:41;100046.11;;;19.31;92.15
75536;BME280;64119;52.070;20.804;2023-07-13T05:16:10;100047.39;;;19.37;91.98
75536;BME280;64119;52.070;20.804;2023-07-13T05:18:38;100051.25;;;19.45;91.74
75536;BME280;64119;52.070;20.804;2023-07-13T05:21:10;100056.11;;;19.54;91.65
75536;BME280;64119;52.070;20.804;2023-07-13T05:23:40;100059.23;;;19.63;92.03
75536;BME280;64119;52.070;20.804;2023-07-13T05:26:10;100063.34;;;19.71;91.28
75536;BME280;64119;52.070;20.804;2023-07-13T05:28:38;100068.55;;;19.80;91.70
75536;BME280;64119;52.070;20.804;2023-07-13T05:31:08;100073.35;;;19.89;92.06
75536;BME280;64119;52.070;20.804;2023-07-13T05:33:36;100074.56;;;19.98;92.00
75536;BME280;64119;52.070;20.804;2023-07-13T05:36:07;100071.79;;;20.07;92.35
75536;BME280;64119;52.070;20.804;2023-07-13T05:38:35;100073.41;;;20.16;91.72
75536;BME280;64119;52.070;20.804;2023-07-13T05:41:03;100078.91;;;20.26;91.64
75536;BME280;64119;52.070;20.804;2023-07-13T05:43:33;100081.49;;;20.33;90.77
75536;BME280;64119;52.070;20.804;2023-07-13T05:46:01;100082.29;;;20.39;90.46
75536;BME280;64119;52.070;20.804;2023-07-13T05:48:31;100087.25;;;20.45;90.51
75536;BME280;64119;52.070;20.804;2023-07-13T05:50:58;100091.45;;;20.54;89.93
75536;BME280;64119;52.070;20.804;2023-07-13T05:53:26;100088.91;;;20.62;89.15
75536;BME280;64119;52.070;20.804;2023-07-13T05:55:55;100084.00;;;20.70;89.69
75536;BME280;64119;52.070;20.804;2023-07-13T05:58:24;100075.04;;;20.79;89.26
75536;BME280;64119;52.070;20.804;2023-07-13T06:01:03;100071.98;;;20.90;89.53
75536;BME280;64119;52.070;20.804;2023-07-13T06:03:32;100066.58;;;21.03;90.39
75536;BME280;64119;52.070;20.804;2023-07-13T06:06:00;100064.59;;;21.10;89.27
75536;BME280;64119;52.070;20.804;2023-07-13T06:08:29;100064.03;;;21.21;90.45
75536;BME280;64119;52.070;20.804;2023-07-13T06:11:08;100071.23;;;21.31;89.26
75536;BME280;64119;52.070;20.804;2023-07-13T06:13:37;100067.29;;;21.43;88.72
75536;BME280;64119;52.070;20.804;2023-07-13T06:16:06;100066.88;;;21.57;89.80
75536;BME280;64119;52.070;20.804;2023-07-13T06:18:38;100066.46;;;21.68;89.53
75536;BME280;64119;52.070;20.804;2023-07-13T06:23:36;100066.45;;;21.85;89.36
75536;BME280;64119;52.070;20.804;2023-07-13T06:26:05;100063.81;;;21.90;87.88
75536;BME280;64119;52.070;20.804;2023-07-13T06:28:33;100068.89;;;21.93;87.85
75536;BME280;64119;52.070;20.804;2023-07-13T06:31:02;100076.19;;;21.98;87.96
75536;BME280;64119;52.070;20.804;2023-07-13T06:33:31;100078.90;;;22.09;86.90
75536;BME280;64119;52.070;20.804;2023-07-13T06:36:00;100077.80;;;22.17;86.99
75536;BME280;64119;52.070;20.804;2023-07-13T06:38:29;100075.06;;;22.23;86.43
75536;BME280;64119;52.070;20.804;2023-07-13T06:40:57;100074.40;;;22.25;86.14
75536;BME280;64119;52.070;20.804;2023-07-13T06:43:25;100073.80;;;22.33;85.17
75536;BME280;64119;52.070;20.804;2023-07-13T06:45:55;100067.57;;;22.40;85.17
75536;BME280;64119;52.070;20.804;2023-07-13T06:48:23;100068.15;;;22.47;84.22
75536;BME280;64119;52.070;20.804;2023-07-13T06:50:51;100069.65;;;22.53;84.11
75536;BME280;64119;52.070;20.804;2023-07-13T06:53:20;100069.44;;;22.66;83.59
75536;BME280;64119;52.070;20.804;2023-07-13T06:55:48;100067.12;;;22.80;82.55
75536;BME280;64119;52.070;20.804;2023-07-13T06:58:17;100068.70;;;22.95;82.19
75536;BME280;64119;52.070;20.804;2023-07-13T07:00:46;100065.02;;;23.09;80.90
75536;BME280;64119;52.070;20.804;2023-07-13T07:03:14;100066.91;;;23.22;78.80
75536;BME280;64119;52.070;20.804;2023-07-13T07:05:42;100060.03;;;23.32;78.14
75536;BME280;64119;52.070;20.804;2023-07-13T07:08:09;100060.10;;;23.43;77.98
75536;BME280;64119;52.070;20.804;2023-07-13T07:10:37;100060.17;;;23.57;77.69
75536;BME280;64119;52.070;20.804;2023-07-13T07:13:05;100055.27;;;23.71;77.10
75536;BME280;64119;52.070;20.804;2023-07-13T07:15:34;100056.13;;;23.87;74.56
75536;BME280;64119;52.070;20.804;2023-07-13T07:18:02;100058.27;;;23.96;73.91
75536;BME280;64119;52.070;20.804;2023-07-13T07:20:30;100060.02;;;24.02;72.95
75536;BME280;64119;52.070;20.804;2023-07-13T07:23:00;100063.40;;;24.14;72.37
75536;BME280;64119;52.070;20.804;2023-07-13T07:25:28;100068.64;;;24.17;70.65
75536;BME280;64119;52.070;20.804;2023-07-13T07:27:59;100071.14;;;24.28;71.71
75536;BME280;64119;52.070;20.804;2023-07-13T07:30:30;100066.86;;;24.40;71.32
75536;BME280;64119;52.070;20.804;2023-07-13T07:33:00;100066.94;;;24.49;70.43
75536;BME280;64119;52.070;20.804;2023-07-13T07:35:32;100065.63;;;24.55;68.71
75536;BME280;64119;52.070;20.804;2023-07-13T07:38:21;100066.11;;;24.61;68.17
75536;BME280;64119;52.070;20.804;2023-07-13T07:40:52;100063.45;;;24.65;66.43
75536;BME280;64119;52.070;20.804;2023-07-13T07:43:23;100061.41;;;24.78;66.49
75536;BME280;64119;52.070;20.804;2023-07-13T07:45:54;100064.61;;;24.94;67.86
75536;BME280;64119;52.070;20.804;2023-07-13T07:48:22;100068.11;;;25.05;67.46
75536;BME280;64119;52.070;20.804;2023-07-13T07:50:50;100072.69;;;25.08;66.10
75536;BME280;64119;52.070;20.804;2023-07-13T07:53:18;100073.11;;;25.13;67.37
75536;BME280;64119;52.070;20.804;2023-07-13T07:55:45;100068.65;;;25.20;65.79
75536;BME280;64119;52.070;20.804;2023-07-13T07:58:19;100074.81;;;25.29;65.76
75536;BME280;64119;52.070;20.804;2023-07-13T08:00:49;100073.77;;;25.30;64.47
75536;BME280;64119;52.070;20.804;2023-07-13T08:03:21;100076.20;;;25.19;64.02
75536;BME280;64119;52.070;20.804;2023-07-13T08:05:53;100076.44;;;25.29;65.23
75536;BME280;64119;52.070;20.804;2023-07-13T08:08:24;100072.41;;;25.33;64.77
75536;BME280;64119;52.070;20.804;2023-07-13T08:10:52;100069.26;;;25.34;64.90
75536;BME280;64119;52.070;20.804;2023-07-13T08:13:28;100066.54;;;25.47;64.38
75536;BME280;64119;52.070;20.804;2023-07-13T08:15:56;100065.33;;;25.60;63.33
75536;BME280;64119;52.070;20.804;2023-07-13T08:18:24;100059.27;;;25.72;64.44
75536;BME280;64119;52.070;20.804;2023-07-13T08:20:52;100057.48;;;25.76;63.12
75536;BME280;64119;52.070;20.804;2023-07-13T08:23:19;100052.39;;;25.78;62.66
75536;BME280;64119;52.070;20.804;2023-07-13T08:25:52;100053.00;;;25.84;62.76
75536;BME280;64119;52.070;20.804;2023-07-13T08:28:21;100056.23;;;25.92;62.13
75536;BME280;64119;52.070;20.804;2023-07-13T08:30:52;100053.80;;;25.98;62.44
75536;BME280;64119;52.070;20.804;2023-07-13T08:33:22;100054.60;;;26.16;62.24
75536;BME280;64119;52.070;20.804;2023-07-13T08:35:51;100061.27;;;26.30;61.48
75536;BME280;64119;52.070;20.804;2023-07-13T08:38:19;100060.91;;;26.44;60.34
75536;BME280;64119;52.070;20.804;2023-07-13T08:40:53;100058.77;;;26.60;60.67
75536;BME280;64119;52.070;20.804;2023-07-13T08:43:26;100061.28;;;26.71;61.37
75536;BME280;64119;52.070;20.804;2023-07-13T08:46:02;100060.81;;;26.93;59.88
75536;BME280;64119;52.070;20.804;2023-07-13T08:48:36;100062.34;;;27.11;59.08
75536;BME280;64119;52.070;20.804;2023-07-13T08:53:47;100054.80;;;27.45;57.12
75536;BME280;64119;52.070;20.804;2023-07-13T08:56:19;100060.33;;;27.44;55.95
75536;BME280;64119;52.070;20.804;2023-07-13T08:58:51;100064.02;;;27.66;56.93
75536;BME280;64119;52.070;20.804;2023-07-13T09:04:19;100064.10;;;28.11;55.88
75536;BME280;64119;52.070;20.804;2023-07-13T09:09:59;100055.17;;;28.27;55.29
75536;BME280;64119;52.070;20.804;2023-07-13T09:15:28;100052.65;;;28.65;55.61
75536;BME280;64119;52.070;20.804;2023-07-13T09:18:08;100051.78;;;28.79;53.89
75536;BME280;64119;52.070;20.804;2023-07-13T09:20:44;100046.06;;;28.66;52.99
75536;BME280;64119;52.070;20.804;2023-07-13T09:23:16;100045.70;;;28.45;52.79
75536;BME280;64119;52.070;20.804;2023-07-13T09:25:48;100042.23;;;28.38;53.91
75536;BME280;64119;52.070;20.804;2023-07-13T09:28:27;100043.16;;;28.44;53.51
75536;BME280;64119;52.070;20.804;2023-07-13T09:31:04;100041.18;;;28.73;53.76
75536;BME280;64119;52.070;20.804;2023-07-13T09:33:33;100045.73;;;28.97;51.63
75536;BME280;64119;52.070;20.804;2023-07-13T09:36:18;100036.31;;;29.15;52.91
75536;BME280;64119;52.070;20.804;2023-07-13T09:38:48;100032.98;;;29.37;52.17
75536;BME280;64119;52.070;20.804;2023-07-13T09:41:28;100025.38;;;29.54;51.52
75536;BME280;64119;52.070;20.804;2023-07-13T09:44:13;100026.67;;;29.84;48.97
75536;BME280;64119;52.070;20.804;2023-07-13T09:46:47;100017.08;;;30.07;48.02
75536;BME280;64119;52.070;20.804;2023-07-13T09:49:29;100015.56;;;30.06;47.20
75536;BME280;64119;52.070;20.804;2023-07-13T09:52:04;100009.40;;;30.16;47.96
75536;BME280;64119;52.070;20.804;2023-07-13T09:54:34;100007.29;;;30.23;47.87
75536;BME280;64119;52.070;20.804;2023-07-13T09:57:12;100002.23;;;30.42;47.72
75536;BME280;64119;52.070;20.804;2023-07-13T09:59:43;99996.55;;;30.31;46.52
75536;BME280;64119;52.070;20.804;2023-07-13T10:02:23;99992.81;;;30.34;47.28
75536;BME280;64119;52.070;20.804;2023-07-13T10:04:57;99992.17;;;30.27;47.59
75536;BME280;64119;52.070;20.804;2023-07-13T10:07:26;99986.83;;;30.13;46.76
75536;BME280;64119;52.070;20.804;2023-07-13T10:09:58;99980.24;;;29.80;46.65
75536;BME280;64119;52.070;20.804;2023-07-13T10:12:30;99978.94;;;29.55;47.48
75536;BME280;64119;52.070;20.804;2023-07-13T10:15:06;99976.58;;;29.33;47.87
75536;BME280;64119;52.070;20.804;2023-07-13T10:17:53;99974.58;;;29.14;47.62
75536;BME280;64119;52.070;20.804;2023-07-13T10:20:26;99975.41;;;29.05;48.73
75536;BME280;64119;52.070;20.804;2023-07-13T10:23:02;99975.55;;;28.97;48.62
75536;BME280;64119;52.070;20.804;2023-07-13T10:25:34;99974.30;;;28.85;48.59
75536;BME280;64119;52.070;20.804;2023-07-13T10:30:53;99967.91;;;28.55;49.22
75536;BME280;64119;52.070;20.804;2023-07-13T10:33:23;99967.86;;;28.41;48.75
75536;BME280;64119;52.070;20.804;2023-07-13T10:35:55;99971.60;;;28.28;49.68
75536;BME280;64119;52.070;20.804;2023-07-13T10:38:25;99974.20;;;28.14;50.32
75536;BME280;64119;52.070;20.804;2023-07-13T10:41:02;99979.52;;;27.89;51.84
75536;BME280;64119;52.070;20.804;2023-07-13T10:43:46;99988.31;;;27.54;54.87
75536;BME280;64119;52.070;20.804;2023-07-13T10:46:20;100020.50;;;26.79;56.53
75536;BME280;64119;52.070;20.804;2023-07-13T10:48:52;100048.60;;;25.41;62.59
75536;BME280;64119;52.070;20.804;2023-07-13T10:51:22;100051.45;;;24.15;67.27
75536;BME280;64119;52.070;20.804;2023-07-13T10:54:19;100064.27;;;23.42;68.65
75536;BME280;64119;52.070;20.804;2023-07-13T10:56:53;100078.48;;;22.51;73.30
75536;BME280;64119;52.070;20.804;2023-07-13T10:59:34;100077.73;;;21.98;76.00
75536;BME280;64119;52.070;20.804;2023-07-13T11:04:40;100096.28;;;21.08;79.13
75536;BME280;64119;52.070;20.804;2023-07-13T11:07:16;100101.48;;;20.64;82.63
75536;BME280;64119;52.070;20.804;2023-07-13T11:09:50;100095.05;;;20.43;82.82
75536;BME280;64119;52.070;20.804;2023-07-13T11:23:06;100112.96;;;20.24;85.87
75536;BME280;64119;52.070;20.804;2023-07-13T11:25:36;100121.23;;;20.23;88.26
75536;BME280;64119;52.070;20.804;2023-07-13T11:28:15;100131.05;;;20.25;86.50
75536;BME280;64119;52.070;20.804;2023-07-13T11:30:53;100136.30;;;20.22;89.10
75536;BME280;64119;52.070;20.804;2023-07-13T11:36:15;100166.91;;;20.12;86.49
75536;BME280;64119;52.070;20.804;2023-07-13T11:38:58;100158.66;;;19.95;86.59
75536;BME280;64119;52.070;20.804;2023-07-13T11:41:31;100160.58;;;19.83;84.20
75536;BME280;64119;52.070;20.804;2023-07-13T11:44:09;100168.83;;;19.68;84.96
75536;BME280;64119;52.070;20.804;2023-07-13T11:46:38;100175.49;;;19.50;85.57
75536;BME280;64119;52.070;20.804;2023-07-13T11:49:08;100178.86;;;19.38;85.87
75536;BME280;64119;52.070;20.804;2023-07-13T11:51:36;100182.70;;;19.34;86.49
75536;BME280;64119;52.070;20.804;2023-07-13T11:54:28;100179.29;;;19.33;87.31
75536;BME280;64119;52.070;20.804;2023-07-13T11:56:55;100180.69;;;19.33;86.67
75536;BME280;64119;52.070;20.804;2023-07-13T11:59:29;100178.29;;;19.31;89.72
75536;BME280;64119;52.070;20.804;2023-07-13T12:01:58;100165.38;;;19.31;89.01
75536;BME280;64119;52.070;20.804;2023-07-13T12:04:29;100173.80;;;19.32;88.77
75536;BME280;64119;52.070;20.804;2023-07-13T12:07:11;100172.84;;;19.30;89.32
75536;BME280;64119;52.070;20.804;2023-07-13T12:09:42;100167.19;;;19.25;90.24
75536;BME280;64119;52.070;20.804;2023-07-13T12:12:12;100163.44;;;19.22;90.56
75536;BME280;64119;52.070;20.804;2023-07-13T12:14:40;100163.63;;;19.20;91.71
75536;BME280;64119;52.070;20.804;2023-07-13T12:17:16;100166.79;;;19.15;89.95
75536;BME280;64119;52.070;20.804;2023-07-13T12:19:49;100164.95;;;19.18;88.96
75536;BME280;64119;52.070;20.804;2023-07-13T12:22:19;100168.27;;;19.21;87.17
75536;BME280;64119;52.070;20.804;2023-07-13T12:24:48;100170.00;;;19.22;89.01
75536;BME280;64119;52.070;20.804;2023-07-13T12:27:26;100170.52;;;19.25;89.37
75536;BME280;64119;52.070;20.804;2023-07-13T12:30:03;100175.14;;;19.29;87.73
75536;BME280;64119;52.070;20.804;2023-07-13T12:32:32;100173.20;;;19.32;89.44
75536;BME280;64119;52.070;20.804;2023-07-13T12:35:14;100172.41;;;19.34;88.57
75536;BME280;64119;52.070;20.804;2023-07-13T12:37:45;100170.98;;;19.37;90.15
75536;BME280;64119;52.070;20.804;2023-07-13T12:40:16;100162.44;;;19.43;88.58
75536;BME280;64119;52.070;20.804;2023-07-13T12:42:47;100162.19;;;19.50;90.37
75536;BME280;64119;52.070;20.804;2023-07-13T12:45:17;100161.09;;;19.56;87.49
75536;BME280;64119;52.070;20.804;2023-07-13T12:47:50;100158.34;;;19.60;88.00
75536;BME280;64119;52.070;20.804;2023-07-13T12:50:23;100157.03;;;19.60;88.48
75536;BME280;64119;52.070;20.804;2023-07-13T12:52:53;100154.02;;;19.63;87.78
75536;BME280;64119;52.070;20.804;2023-07-13T12:55:22;100150.63;;;19.68;86.15
75536;BME280;64119;52.070;20.804;2023-07-13T12:57:56;100148.86;;;19.60;87.01
75536;BME280;64119;52.070;20.804;2023-07-13T13:00:31;100142.70;;;19.62;87.94
75536;BME280;64119;52.070;20.804;2023-07-13T13:06:03;100141.10;;;19.68;86.72
75536;BME280;64119;52.070;20.804;2023-07-13T13:08:35;100144.09;;;19.71;89.27
75536;BME280;64119;52.070;20.804;2023-07-13T13:11:03;100142.55;;;19.73;86.59
75536;BME280;64119;52.070;20.804;2023-07-13T13:13:31;100144.60;;;19.78;89.56
75536;BME280;64119;52.070;20.804;2023-07-13T13:16:31;100150.46;;;19.83;89.96
75536;BME280;64119;52.070;20.804;2023-07-13T13:19:05;100153.98;;;19.90;89.07
75536;BME280;64119;52.070;20.804;2023-07-13T13:21:37;100155.89;;;19.98;88.72
75536;BME280;64119;52.070;20.804;2023-07-13T13:24:12;100154.44;;;20.05;85.97
75536;BME280;64119;52.070;20.804;2023-07-13T13:26:42;100159.14;;;20.12;85.85
75536;BME280;64119;52.070;20.804;2023-07-13T13:29:20;100163.75;;;20.15;87.07
75536;BME280;64119;52.070;20.804;2023-07-13T13:31:49;100163.39;;;20.17;88.19
75536;BME280;64119;52.070;20.804;2023-07-13T13:34:18;100164.94;;;20.21;86.00
75536;BME280;64119;52.070;20.804;2023-07-13T13:36:46;100168.20;;;20.25;85.33
75536;BME280;64119;52.070;20.804;2023-07-13T13:41:53;100168.23;;;20.31;83.69
75536;BME280;64119;52.070;20.804;2023-07-13T13:44:21;100171.05;;;20.32;84.30